sensor_id;sensor_type;location;lat;lon;timestamp;temperature;humidity
69895;DHT22;57172;52.034;5.090;2024-01-30T00:00:21;8.30;85.30
69895;DHT22;57172;52.034;5.090;2024-01-30T00:02:48;8.40;85.40
69895;DHT22;57172;52.034;5.090;2024-01-30T00:05:15;8.40;85.30
69895;DHT22;57172;52.034;5.090;2024-01-30T00:07:42;8.40;85.70
69895;DHT22;57172;52.034;5.090;2024-01-30T00:10:09;8.40;86.20
69895;DHT22;57172;52.034;5.090;2024-01-30T00:12:36;8.40;86.20
69895;DHT22;57172;52.034;5.090;2024-01-30T00:15:04;8.50;86.50
69895;DHT22;57172;52.034;5.090;2024-01-30T00:17:31;8.50;87.00
69895;DHT22;57172;52.034;5.090;2024-01-30T00:19:58;8.50;87.00
69895;DHT22;57172;52.034;5.090;2024-01-30T00:22:25;8.60;87.10
69895;DHT22;57172;52.034;5.090;2024-01-30T00:24:52;8.60;87.10
69895;DHT22;57172;52.034;5.090;2024-01-30T00:27:19;8.60;87.50
69895;DHT22;57172;52.034;5.090;2024-01-30T00:29:46;8.70;87.40
69895;DHT22;57172;52.034;5.090;2024-01-30T00:32:13;8.70;87.40
69895;DHT22;57172;52.034;5.090;2024-01-30T00:34:42;8.70;87.00
69895;DHT22;57172;52.034;5.090;2024-01-30T00:37:09;8.70;87.10
69895;DHT22;57172;52.034;5.090;2024-01-30T00:39:36;8.70;87.00
69895;DHT22;57172;52.034;5.090;2024-01-30T00:42:03;8.70;86.70
69895;DHT22;57172;52.034;5.090;2024-01-30T00:44:30;8.70;86.50
69895;DHT22;57172;52.034;5.090;2024-01-30T00:46:57;8.70;86.20
69895;DHT22;57172;52.034;5.090;2024-01-30T00:49:23;8.70;85.80
69895;DHT22;57172;52.034;5.090;2024-01-30T00:51:50;8.60;85.60
69895;DHT22;57172;52.034;5.090;2024-01-30T00:54:17;8.60;85.40
69895;DHT22;57172;52.034;5.090;2024-01-30T00:56:44;8.50;85.30
69895;DHT22;57172;52.034;5.090;2024-01-30T00:59:11;8.50;85.50
69895;DHT22;57172;52.034;5.090;2024-01-30T01:01:38;8.40;85.50
69895;DHT22;57172;52.034;5.090;2024-01-30T01:04:05;8.40;85.60
69895;DHT22;57172;52.034;5.090;2024-01-30T01:06:33;8.40;85.60
69895;DHT22;57172;52.034;5.090;2024-01-30T01:09:01;8.30;85.60
69895;DHT22;57172;52.034;5.090;2024-01-30T01:11:30;8.30;85.60
69895;DHT22;57172;52.034;5.090;2024-01-30T01:13:58;8.30;85.60
69895;DHT22;57172;52.034;5.090;2024-01-30T01:16:25;8.20;85.90
69895;DHT22;57172;52.034;5.090;2024-01-30T01:18:51;8.20;86.20
69895;DHT22;57172;52.034;5.090;2024-01-30T01:21:18;8.20;86.50
69895;DHT22;57172;52.034;5.090;2024-01-30T01:23:45;8.20;86.50
69895;DHT22;57172;52.034;5.090;2024-01-30T01:26:12;8.20;86.60
69895;DHT22;57172;52.034;5.090;2024-01-30T01:28:40;8.20;87.00
69895;DHT22;57172;52.034;5.090;2024-01-30T01:31:08;8.20;87.10
69895;DHT22;57172;52.034;5.090;2024-01-30T01:33:35;8.20;87.00
69895;DHT22;57172;52.034;5.090;2024-01-30T01:36:04;8.20;86.90
69895;DHT22;57172;52.034;5.090;2024-01-30T01:38:30;8.20;86.60
69895;DHT22;57172;52.034;5.090;2024-01-30T01:40:57;8.20;86.30
69895;DHT22;57172;52.034;5.090;2024-01-30T01:43:24;8.20;86.20
69895;DHT22;57172;52.034;5.090;2024-01-30T01:45:51;8.10;86.20
69895;DHT22;57172;52.034;5.090;2024-01-30T01:48:18;8.10;86.10
69895;DHT22;57172;52.034;5.090;2024-01-30T01:50:45;8.10;85.90
69895;DHT22;57172;52.034;5.090;2024-01-30T01:53:13;8.10;85.80
69895;DHT22;57172;52.034;5.090;2024-01-30T01:55:40;8.00;85.60
69895;DHT22;57172;52.034;5.090;2024-01-30T01:58:07;8.00;85.80
69895;DHT22;57172;52.034;5.090;2024-01-30T02:00:36;8.00;85.80
69895;DHT22;57172;52.034;5.090;2024-01-30T02:03:08;7.90;85.90
69895;DHT22;57172;52.034;5.090;2024-01-30T02:05:37;7.90;86.00
69895;DHT22;57172;52.034;5.090;2024-01-30T02:08:04;7.90;86.00
69895;DHT22;57172;52.034;5.090;2024-01-30T02:10:32;7.90;86.10
69895;DHT22;57172;52.034;5.090;2024-01-30T02:12:59;7.90;86.20
69895;DHT22;57172;52.034;5.090;2024-01-30T02:15:26;7.90;86.60
69895;DHT22;57172;52.034;5.090;2024-01-30T02:17:52;7.90;86.80
69895;DHT22;57172;52.034;5.090;2024-01-30T02:20:19;7.90;87.00
69895;DHT22;57172;52.034;5.090;2024-01-30T02:22:47;7.90;86.90
69895;DHT22;57172;52.034;5.090;2024-01-30T02:25:14;7.90;86.90
69895;DHT22;57172;52.034;5.090;2024-01-30T02:27:42;7.90;86.90
69895;DHT22;57172;52.034;5.090;2024-01-30T02:30:09;7.90;86.90
69895;DHT22;57172;52.034;5.090;2024-01-30T02:32:36;8.00;86.80
69895;DHT22;57172;52.034;5.090;2024-01-30T02:35:03;8.00;86.70
69895;DHT22;57172;52.034;5.090;2024-01-30T02:37:30;8.00;86.50
69895;DHT22;57172;52.034;5.090;2024-01-30T02:39:57;8.00;86.50
69895;DHT22;57172;52.034;5.090;2024-01-30T02:42:24;7.90;86.50
69895;DHT22;57172;52.034;5.090;2024-01-30T02:44:51;7.90;86.50
69895;DHT22;57172;52.034;5.090;2024-01-30T02:47:18;7.90;86.80
69895;DHT22;57172;52.034;5.090;2024-01-30T02:49:45;7.90;86.70
69895;DHT22;57172;52.034;5.090;2024-01-30T02:52:11;7.90;86.70
69895;DHT22;57172;52.034;5.090;2024-01-30T02:54:39;7.90;86.70
69895;DHT22;57172;52.034;5.090;2024-01-30T02:57:06;7.90;86.70
69895;DHT22;57172;52.034;5.090;2024-01-30T02:59:33;7.90;86.70
69895;DHT22;57172;52.034;5.090;2024-01-30T03:02:02;7.90;86.70
69895;DHT22;57172;52.034;5.090;2024-01-30T03:04:29;7.90;86.70
69895;DHT22;57172;52.034;5.090;2024-01-30T03:06:57;7.90;86.70
69895;DHT22;57172;52.034;5.090;2024-01-30T03:09:24;7.90;86.70
69895;DHT22;57172;52.034;5.090;2024-01-30T03:11:51;7.90;86.70
69895;DHT22;57172;52.034;5.090;2024-01-30T03:14:17;8.00;86.70
69895;DHT22;57172;52.034;5.090;2024-01-30T03:16:44;8.00;86.80
69895;DHT22;57172;52.034;5.090;2024-01-30T03:19:11;8.00;87.00
69895;DHT22;57172;52.034;5.090;2024-01-30T03:21:38;8.00;87.10
69895;DHT22;57172;52.034;5.090;2024-01-30T03:24:05;8.00;87.10
69895;DHT22;57172;52.034;5.090;2024-01-30T03:26:32;8.00;87.10
69895;DHT22;57172;52.034;5.090;2024-01-30T03:28:59;8.00;87.00
69895;DHT22;57172;52.034;5.090;2024-01-30T03:31:26;8.10;87.30
69895;DHT22;57172;52.034;5.090;2024-01-30T03:33:53;8.00;87.30
69895;DHT22;57172;52.034;5.090;2024-01-30T03:36:20;8.10;87.20
69895;DHT22;57172;52.034;5.090;2024-01-30T03:38:47;8.10;87.30
69895;DHT22;57172;52.034;5.090;2024-01-30T03:41:14;8.10;87.40
69895;DHT22;57172;52.034;5.090;2024-01-30T03:43:41;8.10;87.70
69895;DHT22;57172;52.034;5.090;2024-01-30T03:46:08;8.10;87.80
69895;DHT22;57172;52.034;5.090;2024-01-30T03:48:35;8.10;88.00
69895;DHT22;57172;52.034;5.090;2024-01-30T03:51:02;8.10;88.20
69895;DHT22;57172;52.034;5.090;2024-01-30T03:53:30;8.10;88.10
69895;DHT22;57172;52.034;5.090;2024-01-30T03:55:57;8.10;88.30
69895;DHT22;57172;52.034;5.090;2024-01-30T03:58:24;8.10;88.50
69895;DHT22;57172;52.034;5.090;2024-01-30T04:00:51;8.20;88.80
69895;DHT22;57172;52.034;5.090;2024-01-30T04:03:18;8.20;89.00
69895;DHT22;57172;52.034;5.090;2024-01-30T04:05:45;8.20;89.20
69895;DHT22;57172;52.034;5.090;2024-01-30T04:08:12;8.20;89.30
69895;DHT22;57172;52.034;5.090;2024-01-30T04:10:39;8.30;89.30
69895;DHT22;57172;52.034;5.090;2024-01-30T04:13:07;8.30;89.30
69895;DHT22;57172;52.034;5.090;2024-01-30T04:15:38;8.40;89.20
69895;DHT22;57172;52.034;5.090;2024-01-30T04:18:05;8.40;89.40
69895;DHT22;57172;52.034;5.090;2024-01-30T04:20:32;8.40;89.40
69895;DHT22;57172;52.034;5.090;2024-01-30T04:23:00;8.50;89.30
69895;DHT22;57172;52.034;5.090;2024-01-30T04:25:26;8.50;89.20
69895;DHT22;57172;52.034;5.090;2024-01-30T04:27:54;8.60;89.00
69895;DHT22;57172;52.034;5.090;2024-01-30T04:30:20;8.60;88.80
69895;DHT22;57172;52.034;5.090;2024-01-30T04:32:47;8.60;88.90
69895;DHT22;57172;52.034;5.090;2024-01-30T04:35:14;8.70;88.80
69895;DHT22;57172;52.034;5.090;2024-01-30T04:37:41;8.70;88.80
69895;DHT22;57172;52.034;5.090;2024-01-30T04:40:09;8.70;88.80
69895;DHT22;57172;52.034;5.090;2024-01-30T04:42:36;8.70;88.80
69895;DHT22;57172;52.034;5.090;2024-01-30T04:45:03;8.70;88.80
69895;DHT22;57172;52.034;5.090;2024-01-30T04:47:30;8.70;88.80
69895;DHT22;57172;52.034;5.090;2024-01-30T04:49:57;8.70;88.80
69895;DHT22;57172;52.034;5.090;2024-01-30T04:52:24;8.70;88.70
69895;DHT22;57172;52.034;5.090;2024-01-30T04:54:51;8.70;88.70
69895;DHT22;57172;52.034;5.090;2024-01-30T04:57:18;8.70;88.70
69895;DHT22;57172;52.034;5.090;2024-01-30T04:59:45;8.80;88.70
69895;DHT22;57172;52.034;5.090;2024-01-30T05:02:11;8.80;88.80
69895;DHT22;57172;52.034;5.090;2024-01-30T05:04:38;8.80;88.80
69895;DHT22;57172;52.034;5.090;2024-01-30T05:07:07;8.80;88.90
69895;DHT22;57172;52.034;5.090;2024-01-30T05:09:34;8.80;88.90
69895;DHT22;57172;52.034;5.090;2024-01-30T05:12:01;8.80;88.90
69895;DHT22;57172;52.034;5.090;2024-01-30T05:14:28;8.90;88.80
69895;DHT22;57172;52.034;5.090;2024-01-30T05:16:55;8.90;88.70
69895;DHT22;57172;52.034;5.090;2024-01-30T05:19:21;8.90;88.70
69895;DHT22;57172;52.034;5.090;2024-01-30T05:21:50;8.90;88.70
69895;DHT22;57172;52.034;5.090;2024-01-30T05:24:17;8.90;88.60
69895;DHT22;57172;52.034;5.090;2024-01-30T05:26:47;9.00;88.60
69895;DHT22;57172;52.034;5.090;2024-01-30T05:29:14;9.00;88.60
69895;DHT22;57172;52.034;5.090;2024-01-30T05:31:41;9.00;88.60
69895;DHT22;57172;52.034;5.090;2024-01-30T05:34:08;9.10;88.60
69895;DHT22;57172;52.034;5.090;2024-01-30T05:36:36;9.10;88.50
69895;DHT22;57172;52.034;5.090;2024-01-30T05:39:02;9.10;88.50
69895;DHT22;57172;52.034;5.090;2024-01-30T05:41:33;9.20;88.50
69895;DHT22;57172;52.034;5.090;2024-01-30T05:44:00;9.20;88.60
69895;DHT22;57172;52.034;5.090;2024-01-30T05:46:27;9.20;88.60
69895;DHT22;57172;52.034;5.090;2024-01-30T05:48:54;9.30;88.60
69895;DHT22;57172;52.034;5.090;2024-01-30T05:51:21;9.30;88.60
69895;DHT22;57172;52.034;5.090;2024-01-30T05:53:48;9.40;88.60
69895;DHT22;57172;52.034;5.090;2024-01-30T05:56:14;9.40;88.60
69895;DHT22;57172;52.034;5.090;2024-01-30T05:58:42;9.50;88.50
69895;DHT22;57172;52.034;5.090;2024-01-30T06:01:10;9.50;88.40
69895;DHT22;57172;52.034;5.090;2024-01-30T06:03:37;9.60;88.40
69895;DHT22;57172;52.034;5.090;2024-01-30T06:06:04;9.60;88.30
69895;DHT22;57172;52.034;5.090;2024-01-30T06:08:30;9.70;88.00
69895;DHT22;57172;52.034;5.090;2024-01-30T06:10:57;9.70;88.00
69895;DHT22;57172;52.034;5.090;2024-01-30T06:13:24;9.70;88.00
69895;DHT22;57172;52.034;5.090;2024-01-30T06:15:51;9.70;87.90
69895;DHT22;57172;52.034;5.090;2024-01-30T06:18:18;9.80;87.70
69895;DHT22;57172;52.034;5.090;2024-01-30T06:20:45;9.80;87.50
69895;DHT22;57172;52.034;5.090;2024-01-30T06:23:12;9.80;87.50
69895;DHT22;57172;52.034;5.090;2024-01-30T06:25:39;9.80;87.50
69895;DHT22;57172;52.034;5.090;2024-01-30T06:28:06;9.80;87.30
69895;DHT22;57172;52.034;5.090;2024-01-30T06:30:33;9.80;87.30
69895;DHT22;57172;52.034;5.090;2024-01-30T06:33:00;9.90;87.30
69895;DHT22;57172;52.034;5.090;2024-01-30T06:35:27;9.90;87.30
69895;DHT22;57172;52.034;5.090;2024-01-30T06:37:55;9.90;87.20
69895;DHT22;57172;52.034;5.090;2024-01-30T06:40:22;9.90;87.20
69895;DHT22;57172;52.034;5.090;2024-01-30T06:42:50;9.90;87.10
69895;DHT22;57172;52.034;5.090;2024-01-30T06:45:17;9.90;87.10
69895;DHT22;57172;52.034;5.090;2024-01-30T06:47:43;9.90;87.00
69895;DHT22;57172;52.034;5.090;2024-01-30T06:50:10;10.00;86.90
69895;DHT22;57172;52.034;5.090;2024-01-30T06:52:38;9.90;86.90
69895;DHT22;57172;52.034;5.090;2024-01-30T06:55:05;9.90;86.90
69895;DHT22;57172;52.034;5.090;2024-01-30T06:57:32;9.90;86.80
69895;DHT22;57172;52.034;5.090;2024-01-30T06:59:59;9.90;86.80
69895;DHT22;57172;52.034;5.090;2024-01-30T07:02:26;9.90;86.70
69895;DHT22;57172;52.034;5.090;2024-01-30T07:04:53;9.90;86.80
69895;DHT22;57172;52.034;5.090;2024-01-30T07:07:19;9.90;86.80
69895;DHT22;57172;52.034;5.090;2024-01-30T07:09:47;9.90;86.80
69895;DHT22;57172;52.034;5.090;2024-01-30T07:12:16;9.90;86.80
69895;DHT22;57172;52.034;5.090;2024-01-30T07:14:43;9.90;86.90
69895;DHT22;57172;52.034;5.090;2024-01-30T07:17:10;9.90;86.80
69895;DHT22;57172;52.034;5.090;2024-01-30T07:19:37;9.90;86.80
69895;DHT22;57172;52.034;5.090;2024-01-30T07:22:04;9.90;86.80
69895;DHT22;57172;52.034;5.090;2024-01-30T07:24:31;9.90;86.90
69895;DHT22;57172;52.034;5.090;2024-01-30T07:26:58;9.90;86.80
69895;DHT22;57172;52.034;5.090;2024-01-30T07:29:25;10.00;86.90
69895;DHT22;57172;52.034;5.090;2024-01-30T07:31:51;9.90;86.90
69895;DHT22;57172;52.034;5.090;2024-01-30T07:34:18;9.90;86.90
69895;DHT22;57172;52.034;5.090;2024-01-30T07:36:45;10.00;86.90
69895;DHT22;57172;52.034;5.090;2024-01-30T07:39:13;10.00;86.90
69895;DHT22;57172;52.034;5.090;2024-01-30T07:41:40;10.00;86.90
69895;DHT22;57172;52.034;5.090;2024-01-30T07:44:07;10.00;86.90
69895;DHT22;57172;52.034;5.090;2024-01-30T07:46:34;10.00;86.90
69895;DHT22;57172;52.034;5.090;2024-01-30T07:49:01;10.00;86.90
69895;DHT22;57172;52.034;5.090;2024-01-30T07:51:28;10.10;86.90
69895;DHT22;57172;52.034;5.090;2024-01-30T07:53:58;10.10;86.90
69895;DHT22;57172;52.034;5.090;2024-01-30T07:56:25;10.10;86.90
69895;DHT22;57172;52.034;5.090;2024-01-30T07:58:52;10.10;86.90
69895;DHT22;57172;52.034;5.090;2024-01-30T08:01:19;10.20;86.90
69895;DHT22;57172;52.034;5.090;2024-01-30T08:03:46;10.20;86.90
69895;DHT22;57172;52.034;5.090;2024-01-30T08:06:13;10.20;87.00
69895;DHT22;57172;52.034;5.090;2024-01-30T08:08:40;10.30;87.00
69895;DHT22;57172;52.034;5.090;2024-01-30T08:11:07;10.30;86.90
69895;DHT22;57172;52.034;5.090;2024-01-30T08:13:34;10.30;86.90
69895;DHT22;57172;52.034;5.090;2024-01-30T08:16:01;10.30;86.90
69895;DHT22;57172;52.034;5.090;2024-01-30T08:18:28;10.40;86.90
69895;DHT22;57172;52.034;5.090;2024-01-30T08:20:55;10.40;87.00
69895;DHT22;57172;52.034;5.090;2024-01-30T08:23:22;10.40;87.00
69895;DHT22;57172;52.034;5.090;2024-01-30T08:25:49;10.50;87.00
69895;DHT22;57172;52.034;5.090;2024-01-30T08:28:15;10.50;87.00
69895;DHT22;57172;52.034;5.090;2024-01-30T08:30:46;10.50;86.90
69895;DHT22;57172;52.034;5.090;2024-01-30T08:33:14;10.60;86.90
69895;DHT22;57172;52.034;5.090;2024-01-30T08:35:41;10.60;86.90
69895;DHT22;57172;52.034;5.090;2024-01-30T08:38:08;10.60;87.00
69895;DHT22;57172;52.034;5.090;2024-01-30T08:40:35;10.70;87.00
69895;DHT22;57172;52.034;5.090;2024-01-30T08:43:02;10.80;86.90
69895;DHT22;57172;52.034;5.090;2024-01-30T08:45:30;10.80;87.00
69895;DHT22;57172;52.034;5.090;2024-01-30T08:47:57;10.80;87.00
69895;DHT22;57172;52.034;5.090;2024-01-30T08:50:24;10.90;87.00
69895;DHT22;57172;52.034;5.090;2024-01-30T08:52:51;10.90;86.80
69895;DHT22;57172;52.034;5.090;2024-01-30T08:55:18;11.00;86.70
69895;DHT22;57172;52.034;5.090;2024-01-30T08:57:45;11.00;86.60
69895;DHT22;57172;52.034;5.090;2024-01-30T09:00:12;11.00;86.60
69895;DHT22;57172;52.034;5.090;2024-01-30T09:02:39;11.00;86.60
69895;DHT22;57172;52.034;5.090;2024-01-30T09:05:06;11.00;86.50
69895;DHT22;57172;52.034;5.090;2024-01-30T09:07:33;11.10;86.50
69895;DHT22;57172;52.034;5.090;2024-01-30T09:10:01;11.10;86.40
69895;DHT22;57172;52.034;5.090;2024-01-30T09:12:28;11.10;86.40
69895;DHT22;57172;52.034;5.090;2024-01-30T09:14:54;11.10;86.40
69895;DHT22;57172;52.034;5.090;2024-01-30T09:17:22;11.20;86.50
69895;DHT22;57172;52.034;5.090;2024-01-30T09:19:48;11.20;86.50
69895;DHT22;57172;52.034;5.090;2024-01-30T09:22:16;11.20;86.60
69895;DHT22;57172;52.034;5.090;2024-01-30T09:24:42;11.20;86.70
69895;DHT22;57172;52.034;5.090;2024-01-30T09:27:09;11.30;86.70
69895;DHT22;57172;52.034;5.090;2024-01-30T09:29:36;11.30;86.70
69895;DHT22;57172;52.034;5.090;2024-01-30T09:32:04;11.30;86.70
69895;DHT22;57172;52.034;5.090;2024-01-30T09:34:32;11.30;86.70
69895;DHT22;57172;52.034;5.090;2024-01-30T09:36:59;11.40;86.70
69895;DHT22;57172;52.034;5.090;2024-01-30T09:39:27;11.40;86.70
69895;DHT22;57172;52.034;5.090;2024-01-30T09:45:24;11.50;86.40
69895;DHT22;57172;52.034;5.090;2024-01-30T09:47:52;11.60;86.20
69895;DHT22;57172;52.034;5.090;2024-01-30T09:50:19;11.50;86.20
69895;DHT22;57172;52.034;5.090;2024-01-30T09:52:47;11.60;86.20
69895;DHT22;57172;52.034;5.090;2024-01-30T09:55:14;11.60;86.10
69895;DHT22;57172;52.034;5.090;2024-01-30T09:57:42;11.60;86.20
69895;DHT22;57172;52.034;5.090;2024-01-30T10:00:09;11.60;86.20
69895;DHT22;57172;52.034;5.090;2024-01-30T10:02:40;11.70;86.30
69895;DHT22;57172;52.034;5.090;2024-01-30T10:05:08;11.70;86.30
69895;DHT22;57172;52.034;5.090;2024-01-30T10:07:35;11.80;86.50
69895;DHT22;57172;52.034;5.090;2024-01-30T10:10:02;11.90;86.70
69895;DHT22;57172;52.034;5.090;2024-01-30T10:12:31;11.90;86.40
69895;DHT22;57172;52.034;5.090;2024-01-30T10:14:59;12.10;86.10
69895;DHT22;57172;52.034;5.090;2024-01-30T10:17:26;12.10;86.40
69895;DHT22;57172;52.034;5.090;2024-01-30T10:19:59;12.20;86.80
69895;DHT22;57172;52.034;5.090;2024-01-30T10:22:28;12.40;86.00
69895;DHT22;57172;52.034;5.090;2024-01-30T10:24:55;12.40;84.80
69895;DHT22;57172;52.034;5.090;2024-01-30T10:27:28;12.40;84.60
69895;DHT22;57172;52.034;5.090;2024-01-30T10:29:56;12.40;84.10
69895;DHT22;57172;52.034;5.090;2024-01-30T10:32:23;12.40;83.80
69895;DHT22;57172;52.034;5.090;2024-01-30T10:34:52;12.40;83.70
69895;DHT22;57172;52.034;5.090;2024-01-30T10:37:21;12.30;83.40
69895;DHT22;57172;52.034;5.090;2024-01-30T10:39:53;12.30;83.20
69895;DHT22;57172;52.034;5.090;2024-01-30T10:42:25;12.30;82.90
69895;DHT22;57172;52.034;5.090;2024-01-30T10:45:08;12.30;82.50
69895;DHT22;57172;52.034;5.090;2024-01-30T10:47:36;12.30;82.30
69895;DHT22;57172;52.034;5.090;2024-01-30T10:50:04;12.30;82.00
69895;DHT22;57172;52.034;5.090;2024-01-30T10:52:32;12.30;82.10
69895;DHT22;57172;52.034;5.090;2024-01-30T10:55:00;12.30;82.30
69895;DHT22;57172;52.034;5.090;2024-01-30T10:57:27;12.40;82.80
69895;DHT22;57172;52.034;5.090;2024-01-30T10:59:56;12.40;82.00
69895;DHT22;57172;52.034;5.090;2024-01-30T11:02:24;12.40;81.90
69895;DHT22;57172;52.034;5.090;2024-01-30T11:04:56;12.40;81.80
69895;DHT22;57172;52.034;5.090;2024-01-30T11:07:28;12.40;81.90
69895;DHT22;57172;52.034;5.090;2024-01-30T11:12:28;12.40;80.50
69895;DHT22;57172;52.034;5.090;2024-01-30T11:15:06;12.40;80.70
69895;DHT22;57172;52.034;5.090;2024-01-30T11:17:51;12.40;80.60
69895;DHT22;57172;52.034;5.090;2024-01-30T11:22:49;12.40;80.40
69895;DHT22;57172;52.034;5.090;2024-01-30T11:25:19;12.30;78.40
69895;DHT22;57172;52.034;5.090;2024-01-30T11:27:47;12.20;78.20
69895;DHT22;57172;52.034;5.090;2024-01-30T11:30:25;12.00;77.60
69895;DHT22;57172;52.034;5.090;2024-01-30T11:35:25;11.70;78.00
69895;DHT22;57172;52.034;5.090;2024-01-30T11:37:54;11.60;78.60
69895;DHT22;57172;52.034;5.090;2024-01-30T11:40:21;11.60;78.80
69895;DHT22;57172;52.034;5.090;2024-01-30T11:42:48;11.60;79.20
69895;DHT22;57172;52.034;5.090;2024-01-30T11:45:17;11.60;79.10
69895;DHT22;57172;52.034;5.090;2024-01-30T11:47:44;11.50;78.90
69895;DHT22;57172;52.034;5.090;2024-01-30T11:50:11;11.60;79.00
69895;DHT22;57172;52.034;5.090;2024-01-30T11:52:38;11.60;78.60
69895;DHT22;57172;52.034;5.090;2024-01-30T11:55:06;11.60;78.00
69895;DHT22;57172;52.034;5.090;2024-01-30T11:57:36;11.60;78.30
69895;DHT22;57172;52.034;5.090;2024-01-30T12:00:04;11.70;77.10
69895;DHT22;57172;52.034;5.090;2024-01-30T12:02:37;11.70;75.80
69895;DHT22;57172;52.034;5.090;2024-01-30T12:05:07;11.50;75.80
69895;DHT22;57172;52.034;5.090;2024-01-30T12:07:34;11.30;76.20
69895;DHT22;57172;52.034;5.090;2024-01-30T12:10:02;11.20;77.00
69895;DHT22;57172;52.034;5.090;2024-01-30T12:12:30;11.00;77.50
69895;DHT22;57172;52.034;5.090;2024-01-30T12:14:57;10.80;78.10
69895;DHT22;57172;52.034;5.090;2024-01-30T12:17:32;10.70;78.40
69895;DHT22;57172;52.034;5.090;2024-01-30T12:20:07;10.70;78.70
69895;DHT22;57172;52.034;5.090;2024-01-30T12:22:38;10.60;78.90
69895;DHT22;57172;52.034;5.090;2024-01-30T12:25:08;10.60;78.90
69895;DHT22;57172;52.034;5.090;2024-01-30T12:27:36;10.50;78.90
69895;DHT22;57172;52.034;5.090;2024-01-30T12:30:11;10.40;79.10
69895;DHT22;57172;52.034;5.090;2024-01-30T12:32:42;10.30;79.20
69895;DHT22;57172;52.034;5.090;2024-01-30T12:35:14;10.30;79.30
69895;DHT22;57172;52.034;5.090;2024-01-30T12:37:43;10.30;79.00
69895;DHT22;57172;52.034;5.090;2024-01-30T12:40:11;10.30;78.80
69895;DHT22;57172;52.034;5.090;2024-01-30T12:42:41;10.40;78.70
69895;DHT22;57172;52.034;5.090;2024-01-30T12:45:09;10.40;78.70
69895;DHT22;57172;52.034;5.090;2024-01-30T12:47:36;10.40;78.20
69895;DHT22;57172;52.034;5.090;2024-01-30T12:50:03;10.40;78.30
69895;DHT22;57172;52.034;5.090;2024-01-30T12:52:31;10.40;78.40
69895;DHT22;57172;52.034;5.090;2024-01-30T12:54:58;10.40;78.50
69895;DHT22;57172;52.034;5.090;2024-01-30T12:57:25;10.40;78.50
69895;DHT22;57172;52.034;5.090;2024-01-30T12:59:52;10.40;78.90
69895;DHT22;57172;52.034;5.090;2024-01-30T13:02:19;10.40;79.00
69895;DHT22;57172;52.034;5.090;2024-01-30T13:04:47;10.40;79.00
69895;DHT22;57172;52.034;5.090;2024-01-30T13:07:16;10.40;79.00
69895;DHT22;57172;52.034;5.090;2024-01-30T13:09:43;10.40;79.10
69895;DHT22;57172;52.034;5.090;2024-01-30T13:12:10;10.40;79.50
69895;DHT22;57172;52.034;5.090;2024-01-30T13:14:37;10.30;79.40
69895;DHT22;57172;52.034;5.090;2024-01-30T13:17:04;10.30;79.60
69895;DHT22;57172;52.034;5.090;2024-01-30T13:19:31;10.20;80.00
69895;DHT22;57172;52.034;5.090;2024-01-30T13:21:58;10.10;80.40
69895;DHT22;57172;52.034;5.090;2024-01-30T13:24:25;10.10;80.70
69895;DHT22;57172;52.034;5.090;2024-01-30T13:26:53;10.10;80.80
69895;DHT22;57172;52.034;5.090;2024-01-30T13:29:20;10.00;81.40
69895;DHT22;57172;52.034;5.090;2024-01-30T13:31:47;9.90;81.70
69895;DHT22;57172;52.034;5.090;2024-01-30T13:34:15;9.90;82.00
69895;DHT22;57172;52.034;5.090;2024-01-30T13:36:42;9.80;82.70
69895;DHT22;57172;52.034;5.090;2024-01-30T13:39:09;9.80;83.00
69895;DHT22;57172;52.034;5.090;2024-01-30T13:41:37;9.70;83.40
69895;DHT22;57172;52.034;5.090;2024-01-30T13:44:04;9.70;83.50
69895;DHT22;57172;52.034;5.090;2024-01-30T13:46:31;9.60;83.70
69895;DHT22;57172;52.034;5.090;2024-01-30T13:48:58;9.60;83.90
69895;DHT22;57172;52.034;5.090;2024-01-30T13:51:27;9.60;84.20
69895;DHT22;57172;52.034;5.090;2024-01-30T13:53:54;9.60;84.50
69895;DHT22;57172;52.034;5.090;2024-01-30T13:56:21;9.70;84.50
69895;DHT22;57172;52.034;5.090;2024-01-30T13:58:48;9.70;84.40
69895;DHT22;57172;52.034;5.090;2024-01-30T14:01:16;9.70;84.20
69895;DHT22;57172;52.034;5.090;2024-01-30T14:03:44;9.80;84.00
69895;DHT22;57172;52.034;5.090;2024-01-30T14:06:11;9.80;83.60
69895;DHT22;57172;52.034;5.090;2024-01-30T14:08:39;9.70;83.40
69895;DHT22;57172;52.034;5.090;2024-01-30T14:11:09;9.70;83.60
69895;DHT22;57172;52.034;5.090;2024-01-30T14:13:36;9.70;83.70
69895;DHT22;57172;52.034;5.090;2024-01-30T14:16:03;9.70;84.00
69895;DHT22;57172;52.034;5.090;2024-01-30T14:18:32;9.60;84.20
69895;DHT22;57172;52.034;5.090;2024-01-30T14:20:59;9.60;84.50
69895;DHT22;57172;52.034;5.090;2024-01-30T14:23:26;9.50;84.70
69895;DHT22;57172;52.034;5.090;2024-01-30T14:25:52;9.50;84.90
69895;DHT22;57172;52.034;5.090;2024-01-30T14:28:19;9.40;85.40
69895;DHT22;57172;52.034;5.090;2024-01-30T14:30:46;9.30;86.00
69895;DHT22;57172;52.034;5.090;2024-01-30T14:33:14;9.20;86.40
69895;DHT22;57172;52.034;5.090;2024-01-30T14:35:41;9.10;87.20
69895;DHT22;57172;52.034;5.090;2024-01-30T14:38:08;9.00;87.60
69895;DHT22;57172;52.034;5.090;2024-01-30T14:40:38;8.90;89.10
69895;DHT22;57172;52.034;5.090;2024-01-30T14:43:05;8.90;89.20
69895;DHT22;57172;52.034;5.090;2024-01-30T14:45:32;8.90;89.10
69895;DHT22;57172;52.034;5.090;2024-01-30T14:47:59;8.80;89.70
69895;DHT22;57172;52.034;5.090;2024-01-30T14:50:26;8.80;89.80
69895;DHT22;57172;52.034;5.090;2024-01-30T14:52:56;8.80;90.10
69895;DHT22;57172;52.034;5.090;2024-01-30T14:55:23;8.70;90.50
69895;DHT22;57172;52.034;5.090;2024-01-30T14:57:50;8.70;90.70
69895;DHT22;57172;52.034;5.090;2024-01-30T15:00:17;8.70;91.00
69895;DHT22;57172;52.034;5.090;2024-01-30T15:02:44;8.70;91.30
69895;DHT22;57172;52.034;5.090;2024-01-30T15:05:13;8.60;91.70
69895;DHT22;57172;52.034;5.090;2024-01-30T15:07:41;8.70;91.80
69895;DHT22;57172;52.034;5.090;2024-01-30T15:10:09;8.60;91.60
69895;DHT22;57172;52.034;5.090;2024-01-30T15:12:37;8.60;91.90
69895;DHT22;57172;52.034;5.090;2024-01-30T15:15:07;8.60;92.20
69895;DHT22;57172;52.034;5.090;2024-01-30T15:17:34;8.60;92.10
69895;DHT22;57172;52.034;5.090;2024-01-30T15:20:01;8.60;92.20
69895;DHT22;57172;52.034;5.090;2024-01-30T15:22:30;8.60;92.30
69895;DHT22;57172;52.034;5.090;2024-01-30T15:24:57;8.60;92.40
69895;DHT22;57172;52.034;5.090;2024-01-30T15:27:24;8.60;92.70
69895;DHT22;57172;52.034;5.090;2024-01-30T15:29:55;8.60;92.50
69895;DHT22;57172;52.034;5.090;2024-01-30T15:32:22;8.60;92.90
69895;DHT22;57172;52.034;5.090;2024-01-30T15:34:49;8.60;93.20
69895;DHT22;57172;52.034;5.090;2024-01-30T15:37:16;8.60;93.00
69895;DHT22;57172;52.034;5.090;2024-01-30T15:39:43;8.60;92.90
69895;DHT22;57172;52.034;5.090;2024-01-30T15:42:10;8.50;93.00
69895;DHT22;57172;52.034;5.090;2024-01-30T15:44:37;8.50;93.00
69895;DHT22;57172;52.034;5.090;2024-01-30T15:47:04;8.50;93.20
69895;DHT22;57172;52.034;5.090;2024-01-30T15:49:31;8.40;93.30
69895;DHT22;57172;52.034;5.090;2024-01-30T15:51:58;8.40;93.70